Time;durP1;ratioP1;P1;durP2;ratioP2;P2;SDS_P1;SDS_P2;PMS_P1;PMS_P2;Temp;Humidity;BMP_temperature;BMP_pressure;BME280_temperature;BME280_humidity;BME280_pressure;Samples;Min_cycle;Max_cycle;Signal;HPM_P1;HPM_P2
2022/05/09 00:00:12;;;;;;;8.73;3.58;;;;;;;;;;4999720;28;20038;-72
2022/05/09 00:02:39;;;;;;;7.43;4.05;;;;;;;;;;4990793;28;20474;-72
2022/05/09 00:05:06;;;;;;;5.72;3.47;;;;;;;;;;5000338;28;20026;-72
2022/05/09 00:07:32;;;;;;;9.60;4.03;;;;;;;;;;5001159;28;20036;-71
2022/05/09 00:09:58;;;;;;;9.57;4.20;;;;;;;;;;5008819;28;20557;-72
2022/05/09 00:12:24;;;;;;;11.48;4.45;;;;;;;;;;4995748;28;20517;-71
2022/05/09 00:14:50;;;;;;;13.15;3.92;;;;;;;;;;4996857;28;20393;-72
2022/05/09 00:17:16;;;;;;;7.13;4.20;;;;;;;;;;4995470;28;20037;-72
2022/05/09 00:19:43;;;;;;;6.97;4.28;;;;;;;;;;4998201;28;20030;-71
2022/05/09 00:22:09;;;;;;;6.88;4.22;;;;;;;;;;4993779;28;20056;-71
2022/05/09 00:24:35;;;;;;;6.63;4.03;;;;;;;;;;5005785;28;20045;-71
2022/05/09 00:27:01;;;;;;;8.75;3.80;;;;;;;;;;4999475;28;20106;-72
2022/05/09 00:29:27;;;;;;;6.47;4.20;;;;;;;;;;4999629;28;20037;-71
2022/05/09 00:31:56;;;;;;;9.20;4.78;;;;;;;;;;4998027;28;20041;-72
2022/05/09 00:34:23;;;;;;;11.57;4.68;;;;;;;;;;5003567;28;20065;-72
2022/05/09 00:36:49;;;;;;;6.53;4.05;;;;;;;;;;4999551;28;20053;-71
2022/05/09 00:39:16;;;;;;;10.07;4.07;;;;;;;;;;4991451;28;20021;-71
2022/05/09 00:41:43;;;;;;;6.63;4.55;;;;;;;;;;4999703;28;20097;-72
2022/05/09 00:44:28;;;;;;;7.85;4.50;;;;;;;;;;4996966;28;20026;-72
2022/05/09 00:46:56;;;;;;;5.68;4.30;;;;;;;;;;4994352;28;20077;-73
2022/05/09 00:49:25;;;;;;;9.18;5.20;;;;;;;;;;4999055;28;20125;-71
2022/05/09 00:52:02;;;;;;;10.85;4.25;;;;;;;;;;4999001;28;20044;-71
2022/05/09 00:54:31;;;;;;;6.22;4.18;;;;;;;;;;5006570;28;20096;-72
2022/05/09 00:57:02;;;;;;;8.27;4.10;;;;;;;;;;4999200;28;20042;-72
2022/05/09 00:59:30;;;;;;;7.80;4.47;;;;;;;;;;4995570;28;20458;-75
2022/05/09 01:01:56;;;;;;;8.73;4.40;;;;;;;;;;4994088;28;20038;-72
2022/05/09 01:04:26;;;;;;;6.85;4.50;;;;;;;;;;4998774;28;20500;-71
2022/05/09 01:06:53;;;;;;;6.90;4.22;;;;;;;;;;4999022;28;20038;-71
2022/05/09 01:09:19;;;;;;;9.65;4.47;;;;;;;;;;4998357;28;20045;-71
2022/05/09 01:11:46;;;;;;;8.68;4.60;;;;;;;;;;4997122;28;20030;-72
2022/05/09 01:14:18;;;;;;;9.98;4.80;;;;;;;;;;4998764;28;20287;-72
2022/05/09 01:16:46;;;;;;;8.27;4.65;;;;;;;;;;4998186;28;20464;-72
2022/05/09 01:19:15;;;;;;;8.20;5.00;;;;;;;;;;4991317;28;20042;-72
2022/05/09 01:21:41;;;;;;;14.90;5.78;;;;;;;;;;4993975;28;20057;-74
2022/05/09 01:24:15;;;;;;;11.60;4.80;;;;;;;;;;4989992;28;20116;-73
2022/05/09 01:26:41;;;;;;;8.23;4.43;;;;;;;;;;4996624;28;20045;-74
2022/05/09 01:29:11;;;;;;;8.45;4.38;;;;;;;;;;4995871;28;20033;-72
2022/05/09 01:31:37;;;;;;;7.43;4.78;;;;;;;;;;4995189;28;20042;-71
2022/05/09 01:34:03;;;;;;;6.55;4.38;;;;;;;;;;4993664;28;20548;-72
2022/05/09 01:36:32;;;;;;;10.73;5.15;;;;;;;;;;5005824;28;20049;-72
2022/05/09 01:39:00;;;;;;;8.90;5.00;;;;;;;;;;4996083;28;20509;-72
2022/05/09 01:41:27;;;;;;;8.70;4.45;;;;;;;;;;5004390;28;20030;-72
2022/05/09 01:43:55;;;;;;;11.90;4.93;;;;;;;;;;4992937;28;20038;-72
2022/05/09 01:46:25;;;;;;;7.25;4.55;;;;;;;;;;4988608;28;20022;-71
2022/05/09 01:51:37;;;;;;;11.15;5.57;;;;;;;;;;4992839;28;20477;-72
2022/05/09 01:54:04;;;;;;;11.95;6.93;;;;;;;;;;4991207;28;20026;-71
2022/05/09 01:56:31;;;;;;;11.13;5.88;;;;;;;;;;4992590;28;20030;-74
2022/05/09 01:58:58;;;;;;;12.45;5.75;;;;;;;;;;4991262;28;20030;-73
2022/05/09 02:01:27;;;;;;;14.30;7.25;;;;;;;;;;4995860;28;20141;-72
2022/05/09 02:03:53;;;;;;;15.38;7.60;;;;;;;;;;4995199;28;20557;-72
2022/05/09 02:06:20;;;;;;;11.57;7.32;;;;;;;;;;4994144;28;20579;-75
2022/05/09 02:08:46;;;;;;;11.57;7.40;;;;;;;;;;4986337;28;20033;-74
2022/05/09 02:11:12;;;;;;;9.45;6.25;;;;;;;;;;4995157;28;20030;-72
2022/05/09 02:13:39;;;;;;;14.00;6.43;;;;;;;;;;4995233;28;20493;-72
2022/05/09 02:16:05;;;;;;;10.27;7.00;;;;;;;;;;4987810;28;20062;-71
2022/05/09 02:18:33;;;;;;;8.98;6.43;;;;;;;;;;5000859;28;20141;-72
2022/05/09 02:20:59;;;;;;;14.43;7.28;;;;;;;;;;5000228;28;20026;-73
2022/05/09 02:23:25;;;;;;;10.93;7.43;;;;;;;;;;4988615;28;20032;-72
2022/05/09 02:25:52;;;;;;;12.32;6.95;;;;;;;;;;4991853;28;20036;-72
2022/05/09 02:28:18;;;;;;;11.75;6.78;;;;;;;;;;4989351;28;20041;-71
2022/05/09 02:30:44;;;;;;;14.02;6.35;;;;;;;;;;4994224;28;20478;-72
2022/05/09 02:33:11;;;;;;;10.18;5.95;;;;;;;;;;4986122;28;20030;-72
2022/05/09 02:35:38;;;;;;;7.95;5.25;;;;;;;;;;4998646;28;20056;-72
2022/05/09 02:38:04;;;;;;;12.43;5.20;;;;;;;;;;5009332;28;20032;-71
2022/05/09 02:40:33;;;;;;;11.65;5.78;;;;;;;;;;4994926;28;20061;-72
2022/05/09 02:42:59;;;;;;;7.35;4.60;;;;;;;;;;4992453;28;20116;-72
2022/05/09 02:45:26;;;;;;;5.57;4.03;;;;;;;;;;4987985;28;20025;-72
2022/05/09 02:47:52;;;;;;;7.35;4.20;;;;;;;;;;4994606;28;20022;-72
2022/05/09 02:50:19;;;;;;;8.75;4.28;;;;;;;;;;4994917;28;20038;-72
2022/05/09 02:52:45;;;;;;;6.45;3.80;;;;;;;;;;4995126;28;20105;-72
2022/05/09 02:55:12;;;;;;;8.02;4.45;;;;;;;;;;4992840;28;20037;-72
2022/05/09 02:57:39;;;;;;;7.93;5.38;;;;;;;;;;4994868;28;20029;-73
2022/05/09 03:00:06;;;;;;;6.35;4.80;;;;;;;;;;4992567;28;20022;-73
2022/05/09 03:02:33;;;;;;;10.68;5.47;;;;;;;;;;4991640;28;20054;-72
2022/05/09 03:04:59;;;;;;;13.75;5.53;;;;;;;;;;4989468;28;20022;-72
2022/05/09 03:07:25;;;;;;;14.25;6.13;;;;;;;;;;4992219;28;20029;-75
2022/05/09 03:09:51;;;;;;;11.95;6.72;;;;;;;;;;4987816;28;20482;-72
2022/05/09 03:12:19;;;;;;;14.43;7.18;;;;;;;;;;4999629;28;20038;-71
2022/05/09 03:14:46;;;;;;;12.55;6.35;;;;;;;;;;4990413;28;20042;-72
2022/05/09 03:17:12;;;;;;;11.27;6.18;;;;;;;;;;4983873;28;20064;-72
2022/05/09 03:19:38;;;;;;;11.57;6.63;;;;;;;;;;4986728;28;20862;-72
2022/05/09 03:22:04;;;;;;;10.73;5.88;;;;;;;;;;5001518;28;20037;-75
2022/05/09 03:24:31;;;;;;;14.85;6.78;;;;;;;;;;4992589;28;20037;-71
2022/05/09 03:26:59;;;;;;;16.25;6.65;;;;;;;;;;4992013;28;20037;-71
2022/05/09 03:29:26;;;;;;;15.48;6.95;;;;;;;;;;4989409;28;20030;-71
2022/05/09 03:31:53;;;;;;;15.98;7.03;;;;;;;;;;4994756;28;20026;-71
2022/05/09 03:34:20;;;;;;;15.02;7.25;;;;;;;;;;5011264;28;20112;-72
2022/05/09 03:36:46;;;;;;;16.05;6.70;;;;;;;;;;5015280;28;20117;-71
2022/05/09 03:39:12;;;;;;;11.25;5.95;;;;;;;;;;4990681;28;20018;-72
2022/05/09 03:41:39;;;;;;;16.30;7.32;;;;;;;;;;4997889;28;20030;-72
2022/05/09 03:44:06;;;;;;;13.00;7.00;;;;;;;;;;4996773;28;20030;-71
2022/05/09 03:46:32;;;;;;;13.10;7.40;;;;;;;;;;4990221;28;20027;-71
2022/05/09 03:49:01;;;;;;;15.57;7.57;;;;;;;;;;4993019;28;20072;-72
2022/05/09 03:51:27;;;;;;;11.70;7.45;;;;;;;;;;4988440;28;20026;-72
2022/05/09 03:53:53;;;;;;;14.02;7.55;;;;;;;;;;4995932;28;20037;-73
2022/05/09 03:56:19;;;;;;;18.38;7.97;;;;;;;;;;4996167;28;20141;-72
2022/05/09 03:58:45;;;;;;;15.82;6.82;;;;;;;;;;4995606;28;20417;-71
2022/05/09 04:01:11;;;;;;;12.18;6.78;;;;;;;;;;4993996;28;20684;-73
2022/05/09 04:03:38;;;;;;;11.50;6.28;;;;;;;;;;4985992;28;20030;-72
2022/05/09 04:06:04;;;;;;;11.07;6.60;;;;;;;;;;4995463;28;20389;-71
2022/05/09 04:08:31;;;;;;;12.10;6.80;;;;;;;;;;4992275;28;20042;-72
2022/05/09 04:10:58;;;;;;;13.63;6.63;;;;;;;;;;4989304;28;20018;-71
2022/05/09 04:13:24;;;;;;;10.73;5.90;;;;;;;;;;4995315;28;20045;-71
2022/05/09 04:18:40;;;;;;;10.75;6.05;;;;;;;;;;4994411;28;20511;-72
2022/05/09 04:21:07;;;;;;;8.75;5.32;;;;;;;;;;5003821;28;20033;-72
2022/05/09 04:23:33;;;;;;;9.27;5.15;;;;;;;;;;4994952;28;20021;-72
2022/05/09 04:26:00;;;;;;;8.25;4.82;;;;;;;;;;4987946;28;20038;-71
2022/05/09 04:28:26;;;;;;;5.50;4.22;;;;;;;;;;4995359;28;20177;-72
2022/05/09 04:30:52;;;;;;;8.43;4.80;;;;;;;;;;4995107;28;20513;-72
2022/05/09 04:33:19;;;;;;;7.97;4.78;;;;;;;;;;4993550;28;20111;-72
2022/05/09 04:35:45;;;;;;;6.75;4.35;;;;;;;;;;4994957;28;20088;-72
2022/05/09 04:38:16;;;;;;;8.05;5.05;;;;;;;;;;4987559;28;20057;-73
2022/05/09 04:40:42;;;;;;;7.53;4.63;;;;;;;;;;4995036;28;20060;-72
2022/05/09 04:43:09;;;;;;;6.20;4.35;;;;;;;;;;4992988;28;20030;-73
2022/05/09 04:45:35;;;;;;;8.50;5.00;;;;;;;;;;4993860;28;20022;-72
2022/05/09 04:48:02;;;;;;;8.00;4.90;;;;;;;;;;4994573;28;20030;-75
2022/05/09 04:50:29;;;;;;;7.50;4.80;;;;;;;;;;4987844;28;20092;-72
2022/05/09 04:52:55;;;;;;;7.68;5.07;;;;;;;;;;4992435;28;20026;-72
2022/05/09 04:55:21;;;;;;;9.25;5.00;;;;;;;;;;4992390;28;20068;-74
2022/05/09 04:57:51;;;;;;;8.05;5.78;;;;;;;;;;4989188;28;20584;-73
2022/05/09 05:00:19;;;;;;;8.75;5.53;;;;;;;;;;4992179;28;20088;-77
2022/05/09 05:02:45;;;;;;;9.95;5.80;;;;;;;;;;4994188;28;20018;-72
2022/05/09 05:05:11;;;;;;;9.45;5.40;;;;;;;;;;4990825;28;20540;-72
2022/05/09 05:07:38;;;;;;;8.10;5.38;;;;;;;;;;4993802;28;20022;-73
2022/05/09 05:10:04;;;;;;;9.70;5.72;;;;;;;;;;4993634;28;20022;-72
2022/05/09 05:12:31;;;;;;;9.52;5.70;;;;;;;;;;5007900;28;20730;-75
2022/05/09 05:14:57;;;;;;;10.00;6.75;;;;;;;;;;4987799;28;20077;-72
2022/05/09 05:17:24;;;;;;;8.30;5.35;;;;;;;;;;4975668;28;20033;-72
2022/05/09 05:19:50;;;;;;;8.48;5.45;;;;;;;;;;4993073;28;20485;-74
2022/05/09 05:22:16;;;;;;;9.77;5.55;;;;;;;;;;4993095;28;20030;-73
2022/05/09 05:24:44;;;;;;;10.95;5.10;;;;;;;;;;4991563;28;20032;-73
2022/05/09 05:27:11;;;;;;;12.10;5.43;;;;;;;;;;4985253;28;20034;-74
2022/05/09 05:29:37;;;;;;;8.20;5.35;;;;;;;;;;4992588;28;20030;-74
2022/05/09 05:32:20;;;;;;;12.63;5.30;;;;;;;;;;4989419;28;20027;-72
2022/05/09 05:34:47;;;;;;;8.18;5.63;;;;;;;;;;4990476;28;20437;-73
2022/05/09 05:37:13;;;;;;;6.63;5.50;;;;;;;;;;4992722;28;20046;-75
2022/05/09 05:39:40;;;;;;;11.07;5.97;;;;;;;;;;4994361;28;20042;-73
2022/05/09 05:42:07;;;;;;;10.73;5.90;;;;;;;;;;4991227;28;20108;-72
2022/05/09 05:44:34;;;;;;;8.48;5.82;;;;;;;;;;4988769;28;20482;-73
2022/05/09 05:47:04;;;;;;;6.18;5.10;;;;;;;;;;4992926;28;20033;-73
2022/05/09 05:49:30;;;;;;;11.13;6.20;;;;;;;;;;4987367;28;20029;-72
2022/05/09 05:51:59;;;;;;;11.75;6.07;;;;;;;;;;4991956;28;20032;-73
2022/05/09 05:54:27;;;;;;;12.48;7.03;;;;;;;;;;4990338;28;20495;-73
2022/05/09 05:56:53;;;;;;;14.52;7.13;;;;;;;;;;4989222;28;20033;-73
2022/05/09 05:59:19;;;;;;;10.77;6.20;;;;;;;;;;4991575;28;20466;-73
2022/05/09 06:01:45;;;;;;;10.40;6.53;;;;;;;;;;4972898;28;20060;-74
2022/05/09 06:04:11;;;;;;;11.95;6.80;;;;;;;;;;4996649;28;20707;-73
2022/05/09 06:06:37;;;;;;;11.65;7.13;;;;;;;;;;4987387;28;20041;-74
2022/05/09 06:09:05;;;;;;;8.55;6.05;;;;;;;;;;4993303;28;20026;-74
2022/05/09 06:11:31;;;;;;;13.15;6.45;;;;;;;;;;4991913;28;20030;-73
2022/05/09 06:13:59;;;;;;;9.52;5.90;;;;;;;;;;4993776;28;20064;-74
2022/05/09 06:16:26;;;;;;;12.80;6.53;;;;;;;;;;4996918;28;20038;-74
2022/05/09 06:18:53;;;;;;;13.05;6.75;;;;;;;;;;4987281;28;20029;-75
2022/05/09 06:21:20;;;;;;;11.32;5.78;;;;;;;;;;4996008;28;20030;-74
2022/05/09 06:23:46;;;;;;;17.02;6.45;;;;;;;;;;4989909;28;20353;-75
2022/05/09 06:26:14;;;;;;;9.45;6.40;;;;;;;;;;4992052;28;20608;-73
2022/05/09 06:28:40;;;;;;;13.40;5.30;;;;;;;;;;4993628;28;20371;-74
2022/05/09 06:31:06;;;;;;;10.07;5.57;;;;;;;;;;4988915;28;20067;-74
2022/05/09 06:33:33;;;;;;;13.55;5.90;;;;;;;;;;4995219;28;20045;-74
2022/05/09 06:36:00;;;;;;;11.02;5.68;;;;;;;;;;4990480;28;20425;-74
2022/05/09 06:38:27;;;;;;;12.35;5.78;;;;;;;;;;4997720;28;20029;-74
2022/05/09 06:40:54;;;;;;;13.25;6.38;;;;;;;;;;4994462;28;20040;-74
2022/05/09 06:43:22;;;;;;;11.65;6.05;;;;;;;;;;4995046;28;20060;-74
2022/05/09 06:45:52;;;;;;;8.20;6.05;;;;;;;;;;4987410;28;20327;-74
2022/05/09 06:48:18;;;;;;;10.38;5.72;;;;;;;;;;4997104;28;20030;-73
2022/05/09 06:50:45;;;;;;;12.38;6.75;;;;;;;;;;5006034;28;20022;-74
2022/05/09 06:53:12;;;;;;;10.38;6.25;;;;;;;;;;4986895;28;20027;-74
2022/05/09 06:55:38;;;;;;;10.93;7.18;;;;;;;;;;5000984;28;20498;-73
2022/05/09 06:58:08;;;;;;;12.88;8.23;;;;;;;;;;5000395;28;20038;-73
2022/05/09 07:00:35;;;;;;;13.00;7.60;;;;;;;;;;4999814;28;20049;-74
2022/05/09 07:03:01;;;;;;;14.00;7.75;;;;;;;;;;4998586;28;20030;-74
2022/05/09 07:05:27;;;;;;;9.15;6.40;;;;;;;;;;4997205;28;20036;-74
2022/05/09 07:07:53;;;;;;;5.70;4.93;;;;;;;;;;4999402;28;20056;-73
2022/05/09 07:10:20;;;;;;;8.93;5.40;;;;;;;;;;4999088;28;20646;-73
2022/05/09 07:12:46;;;;;;;6.82;4.35;;;;;;;;;;4999114;28;20793;-74
2022/05/09 07:15:13;;;;;;;6.97;4.40;;;;;;;;;;4996696;28;20152;-74
2022/05/09 07:17:40;;;;;;;7.80;3.90;;;;;;;;;;4999157;28;20029;-74
2022/05/09 07:20:06;;;;;;;10.00;4.35;;;;;;;;;;4999412;28;20033;-74
2022/05/09 07:22:33;;;;;;;8.48;4.65;;;;;;;;;;4999576;28;20026;-74
2022/05/09 07:24:59;;;;;;;6.15;4.53;;;;;;;;;;4998019;28;20030;-73
2022/05/09 07:27:25;;;;;;;7.72;3.83;;;;;;;;;;4998999;28;20038;-74
2022/05/09 07:29:51;;;;;;;8.80;4.15;;;;;;;;;;4997596;28;20033;-74
2022/05/09 07:32:18;;;;;;;7.82;3.97;;;;;;;;;;4995150;28;20266;-74
2022/05/09 07:34:48;;;;;;;8.05;4.28;;;;;;;;;;4998326;28;20165;-73
2022/05/09 07:37:15;;;;;;;7.78;5.05;;;;;;;;;;4995895;28;20045;-74
2022/05/09 07:39:41;;;;;;;8.10;4.13;;;;;;;;;;4982263;28;20054;-73
2022/05/09 07:42:08;;;;;;;6.07;3.80;;;;;;;;;;4979272;28;20041;-74
2022/05/09 07:44:34;;;;;;;10.15;4.70;;;;;;;;;;4979903;28;20038;-74
2022/05/09 07:47:01;;;;;;;5.70;4.18;;;;;;;;;;4988645;28;20461;-74
2022/05/09 07:49:27;;;;;;;7.57;4.63;;;;;;;;;;4982600;28;20034;-73
2022/05/09 07:51:53;;;;;;;8.90;4.18;;;;;;;;;;4979239;28;20022;-73
2022/05/09 07:54:19;;;;;;;7.88;4.15;;;;;;;;;;4987427;28;20030;-74
2022/05/09 07:56:46;;;;;;;6.53;4.00;;;;;;;;;;4991214;28;20038;-74
2022/05/09 07:59:12;;;;;;;8.40;3.60;;;;;;;;;;4981002;28;20034;-74
2022/05/09 08:01:39;;;;;;;10.18;3.65;;;;;;;;;;4997825;28;20033;-75
2022/05/09 08:04:05;;;;;;;6.57;3.03;;;;;;;;;;4991844;28;20014;-74
2022/05/09 08:06:31;;;;;;;8.50;3.08;;;;;;;;;;4982315;28;20466;-74
2022/05/09 08:08:58;;;;;;;6.53;3.17;;;;;;;;;;4979463;28;20028;-74
2022/05/09 08:11:25;;;;;;;5.68;3.03;;;;;;;;;;4991679;28;20029;-74
2022/05/09 08:13:51;;;;;;;9.43;2.90;;;;;;;;;;4997290;28;20064;-74
2022/05/09 08:16:19;;;;;;;7.00;3.65;;;;;;;;;;4982737;28;20038;-74
2022/05/09 08:18:45;;;;;;;5.97;3.13;;;;;;;;;;4979653;28;20025;-75
2022/05/09 08:21:13;;;;;;;6.55;3.30;;;;;;;;;;4993591;28;20038;-78
2022/05/09 08:23:39;;;;;;;9.00;4.35;;;;;;;;;;5003901;28;20049;-74
2022/05/09 08:26:05;;;;;;;8.20;2.90;;;;;;;;;;4986374;28;20487;-73
2022/05/09 08:28:32;;;;;;;12.43;3.85;;;;;;;;;;4968736;28;20034;-74
2022/05/09 08:30:59;;;;;;;9.82;3.22;;;;;;;;;;4995953;28;20030;-74
2022/05/09 08:33:28;;;;;;;9.02;3.60;;;;;;;;;;4981195;28;20037;-74
2022/05/09 08:35:55;;;;;;;9.32;3.65;;;;;;;;;;5002553;28;20692;-75
2022/05/09 08:38:21;;;;;;;7.10;3.10;;;;;;;;;;4998654;28;20033;-74
2022/05/09 08:40:53;;;;;;;10.98;4.10;;;;;;;;;;4984056;28;20037;-74
2022/05/09 08:43:23;;;;;;;8.48;4.82;;;;;;;;;;5002531;28;20025;-73
2022/05/09 08:45:53;;;;;;;8.63;4.03;;;;;;;;;;5000367;28;20515;-74
2022/05/09 08:48:32;;;;;;;6.75;3.85;;;;;;;;;;4984401;28;20030;-74
2022/05/09 08:51:12;;;;;;;8.10;4.07;;;;;;;;;;5002281;28;20034;-74
2022/05/09 08:53:43;;;;;;;8.80;3.25;;;;;;;;;;5001957;28;20033;-74
2022/05/09 08:56:12;;;;;;;6.00;3.25;;;;;;;;;;5001914;28;20038;-74
2022/05/09 08:58:44;;;;;;;8.10;3.33;;;;;;;;;;4996051;28;20030;-75
2022/05/09 09:01:12;;;;;;;7.75;3.50;;;;;;;;;;5001285;28;20034;-74
2022/05/09 09:03:40;;;;;;;5.97;3.53;;;;;;;;;;4999666;28;20030;-73
2022/05/09 09:06:12;;;;;;;9.10;3.58;;;;;;;;;;5001248;28;20028;-74
2022/05/09 09:08:50;;;;;;;5.85;2.67;;;;;;;;;;5000332;28;20064;-72
2022/05/09 09:11:22;;;;;;;6.32;3.10;;;;;;;;;;5000925;28;20030;-73
2022/05/09 09:13:54;;;;;;;5.18;3.03;;;;;;;;;;5001584;28;20087;-74
2022/05/09 09:16:25;;;;;;;10.20;3.90;;;;;;;;;;4997521;28;20048;-73
2022/05/09 09:18:54;;;;;;;6.80;3.42;;;;;;;;;;4981424;28;20034;-75
2022/05/09 09:21:20;;;;;;;5.50;3.53;;;;;;;;;;4999024;28;20026;-74
2022/05/09 09:24:18;;;;;;;5.82;3.67;;;;;;;;;;4998442;28;20032;-74
2022/05/09 09:26:50;;;;;;;5.78;3.60;;;;;;;;;;4966138;28;20033;-74
2022/05/09 09:29:16;;;;;;;;;;;;;;;;;;4997483;28;20068;-74
2022/05/09 09:31:47;;;;;;;10.98;5.30;;;;;;;;;;4998602;28;19913;-74
2022/05/09 09:34:33;;;;;;;10.10;4.93;;;;;;;;;;4996695;28;20634;-74
2022/05/09 09:37:08;;;;;;;10.75;4.65;;;;;;;;;;4989344;28;20934;-74
2022/05/09 09:39:35;;;;;;;8.82;4.18;;;;;;;;;;5000956;28;20041;-74
2022/05/09 09:42:01;;;;;;;7.63;4.47;;;;;;;;;;5000577;28;20018;-74
2022/05/09 09:44:28;;;;;;;11.90;5.50;;;;;;;;;;5000270;28;20029;-74
2022/05/09 09:47:09;;;;;;;4.97;3.75;;;;;;;;;;5000977;28;20022;-74
2022/05/09 09:49:38;;;;;;;11.68;5.50;;;;;;;;;;4981748;28;20615;-74
2022/05/09 09:52:13;;;;;;;13.63;7.88;;;;;;;;;;4998334;28;20221;-74
2022/05/09 09:54:39;;;;;;;11.65;5.97;;;;;;;;;;5001208;28;20165;-75
2022/05/09 09:57:20;;;;;;;7.50;4.05;;;;;;;;;;5000930;28;20621;-74
2022/05/09 09:59:47;;;;;;;6.27;3.77;;;;;;;;;;4999509;28;20030;-73
2022/05/09 10:02:22;;;;;;;5.53;3.70;;;;;;;;;;4999356;28;20157;-74
2022/05/09 10:04:48;;;;;;;7.38;3.20;;;;;;;;;;4998972;28;20505;-74
2022/05/09 10:07:26;;;;;;;6.95;3.83;;;;;;;;;;5000742;28;20026;-74
2022/05/09 10:10:12;;;;;;;10.05;3.67;;;;;;;;;;5001048;28;20565;-74
2022/05/09 10:12:44;;;;;;;5.38;3.03;;;;;;;;;;4998556;28;20030;-74
2022/05/09 10:15:28;;;;;;;6.10;2.70;;;;;;;;;;5000037;28;20069;-74
2022/05/09 10:17:55;;;;;;;6.25;2.80;;;;;;;;;;5000323;28;20038;-74
2022/05/09 10:20:24;;;;;;;6.15;2.70;;;;;;;;;;4980166;28;20045;-74
2022/05/09 10:25:37;;;;;;;4.25;2.22;;;;;;;;;;5000149;28;20065;-75
2022/05/09 10:28:10;;;;;;;3.78;2.25;;;;;;;;;;4982997;28;20024;-74
2022/05/09 10:30:38;;;;;;;4.95;1.75;;;;;;;;;;5000480;28;20033;-73
2022/05/09 10:33:19;;;;;;;3.47;1.90;;;;;;;;;;5000015;28;20069;-74
2022/05/09 10:35:53;;;;;;;3.53;2.50;;;;;;;;;;4998988;28;20405;-74
2022/05/09 10:38:25;;;;;;;4.40;2.70;;;;;;;;;;5000822;28;20104;-75
2022/05/09 10:40:55;;;;;;;4.88;3.22;;;;;;;;;;4998635;28;20029;-74
2022/05/09 10:43:27;;;;;;;7.60;3.60;;;;;;;;;;4998867;28;20061;-74
2022/05/09 10:45:54;;;;;;;9.00;3.80;;;;;;;;;;5000407;28;20022;-73
2022/05/09 10:48:28;;;;;;;7.07;3.90;;;;;;;;;;5000679;28;20049;-75
2022/05/09 10:51:04;;;;;;;6.05;3.40;;;;;;;;;;5000075;28;20040;-75
2022/05/09 10:53:35;;;;;;;9.80;4.00;;;;;;;;;;4981405;28;20054;-75
2022/05/09 10:56:09;;;;;;;4.15;3.47;;;;;;;;;;5000094;28;20049;-75
2022/05/09 10:58:42;;;;;;;6.70;3.92;;;;;;;;;;4998625;28;20053;-74
2022/05/09 11:01:19;;;;;;;5.85;3.30;;;;;;;;;;4996793;28;20034;-74
2022/05/09 11:03:46;;;;;;;4.47;3.70;;;;;;;;;;4993721;28;20028;-74
2022/05/09 11:06:12;;;;;;;4.93;3.20;;;;;;;;;;4999393;28;20080;-75
2022/05/09 11:08:39;;;;;;;9.38;3.45;;;;;;;;;;4999990;28;20095;-75
2022/05/09 11:11:08;;;;;;;6.65;3.40;;;;;;;;;;4999142;28;20667;-74
2022/05/09 11:13:44;;;;;;;8.00;3.17;;;;;;;;;;4997761;28;20041;-74
2022/05/09 11:16:19;;;;;;;4.53;3.60;;;;;;;;;;4980045;28;20034;-75
2022/05/09 11:19:04;;;;;;;9.57;3.95;;;;;;;;;;4990309;28;20033;-76
2022/05/09 11:21:48;;;;;;;9.13;3.75;;;;;;;;;;5000120;28;20129;-74
2022/05/09 11:24:23;;;;;;;6.32;3.10;;;;;;;;;;4986063;28;20936;-74
2022/05/09 11:27:08;;;;;;;4.95;3.40;;;;;;;;;;4993753;28;20044;-75
2022/05/09 11:29:40;;;;;;;7.05;3.75;;;;;;;;;;4999476;28;20138;-75
2022/05/09 11:32:09;;;;;;;8.52;3.65;;;;;;;;;;4999053;28;20030;-74
2022/05/09 11:34:51;;;;;;;11.23;3.70;;;;;;;;;;4997863;28;20501;-74
2022/05/09 11:37:20;;;;;;;6.22;3.13;;;;;;;;;;4999444;28;20170;-74
2022/05/09 11:40:05;;;;;;;5.63;3.17;;;;;;;;;;4999296;28;20367;-76
2022/05/09 11:45:54;;;;;;;7.88;3.67;;;;;;;;;;4999044;28;20099;-76
2022/05/09 11:48:20;;;;;;;8.57;3.72;;;;;;;;;;4984187;28;20085;-76
2022/05/09 11:51:06;;;;;;;8.75;3.72;;;;;;;;;;4981253;28;20031;-76
2022/05/09 11:53:37;;;;;;;6.93;4.93;;;;;;;;;;4967544;28;20046;-75
2022/05/09 11:56:05;;;;;;;7.88;3.72;;;;;;;;;;5003330;28;20038;-74
2022/05/09 11:58:35;;;;;;;6.18;4.05;;;;;;;;;;4987488;28;20022;-74
2022/05/09 12:01:01;;;;;;;5.68;3.92;;;;;;;;;;4986817;28;20033;-74
2022/05/09 12:03:39;;;;;;;10.30;4.30;;;;;;;;;;5000924;28;20027;-75
2022/05/09 12:06:06;;;;;;;7.78;3.70;;;;;;;;;;5002938;28;20260;-75
2022/05/09 12:08:46;;;;;;;6.93;3.47;;;;;;;;;;4985370;28;20045;-75
2022/05/09 12:11:32;;;;;;;11.88;4.30;;;;;;;;;;5003033;28;20026;-74
2022/05/09 12:14:00;;;;;;;8.50;4.18;;;;;;;;;;5001727;28;20026;-75
2022/05/09 12:16:36;;;;;;;8.32;3.75;;;;;;;;;;5001646;28;20038;-76
2022/05/09 12:19:26;;;;;;;10.85;4.90;;;;;;;;;;4999858;28;20046;-75
2022/05/09 12:22:13;;;;;;;8.95;4.25;;;;;;;;;;4994847;28;20042;-77
2022/05/09 12:24:42;;;;;;;7.28;4.18;;;;;;;;;;4991778;28;20078;-75
2022/05/09 12:27:27;;;;;;;8.77;4.05;;;;;;;;;;4985389;28;20030;-75
2022/05/09 12:29:55;;;;;;;9.55;4.10;;;;;;;;;;5001960;28;20096;-74
2022/05/09 12:32:22;;;;;;;7.55;3.70;;;;;;;;;;5005112;28;20129;-75
2022/05/09 12:34:49;;;;;;;7.35;3.42;;;;;;;;;;5005656;28;20508;-75
2022/05/09 12:37:17;;;;;;;7.13;3.83;;;;;;;;;;4983138;28;20132;-75
2022/05/09 12:39:48;;;;;;;10.50;4.60;;;;;;;;;;5001846;28;20079;-75
2022/05/09 12:42:24;;;;;;;8.57;4.07;;;;;;;;;;5002072;28;20080;-75
2022/05/09 12:44:52;;;;;;;11.63;4.95;;;;;;;;;;5001550;28;20068;-74
2022/05/09 12:47:22;;;;;;;9.57;4.55;;;;;;;;;;5001003;28;20038;-75
2022/05/09 12:49:50;;;;;;;13.15;5.10;;;;;;;;;;5001823;28;20077;-76
2022/05/09 12:52:21;;;;;;;15.63;5.18;;;;;;;;;;5001467;28;20038;-74
2022/05/09 12:57:34;;;;;;;9.98;4.55;;;;;;;;;;5001515;28;20064;-75
2022/05/09 13:00:08;;;;;;;11.25;5.15;;;;;;;;;;4983997;28;20034;-75
2022/05/09 13:02:34;;;;;;;12.90;4.90;;;;;;;;;;5000344;28;20124;-74
2022/05/09 13:05:00;;;;;;;14.48;5.63;;;;;;;;;;4999107;28;20068;-75
2022/05/09 13:07:26;;;;;;;8.07;4.90;;;;;;;;;;5001655;28;20038;-75
2022/05/09 13:09:53;;;;;;;12.57;5.35;;;;;;;;;;5002000;28;20053;-76
2022/05/09 13:12:25;;;;;;;14.63;5.63;;;;;;;;;;4999932;28;20084;-76
2022/05/09 13:14:51;;;;;;;;;;;;;;;;;;5001284;28;20870;-75
2022/05/09 13:17:32;;;;;;;12.50;5.78;;;;;;;;;;5001872;28;19921;-75
2022/05/09 13:19:58;;;;;;;9.38;6.20;;;;;;;;;;5001344;28;20224;-76
2022/05/09 13:22:35;;;;;;;17.02;5.93;;;;;;;;;;5001016;28;20585;-75
2022/05/09 13:25:13;;;;;;;16.50;7.22;;;;;;;;;;4999925;28;20593;-75
2022/05/09 13:27:39;;;;;;;15.50;7.43;;;;;;;;;;5001991;28;20029;-75
2022/05/09 13:30:07;;;;;;;12.48;6.43;;;;;;;;;;4983000;28;20018;-77
2022/05/09 13:32:35;;;;;;;19.20;9.70;;;;;;;;;;5000870;28;20633;-75
2022/05/09 13:35:02;;;;;;;15.32;6.80;;;;;;;;;;5001479;28;20105;-75
2022/05/09 13:37:30;;;;;;;10.43;6.47;;;;;;;;;;4999737;28;20049;-75
2022/05/09 13:39:56;;;;;;;10.35;6.45;;;;;;;;;;5001222;28;20057;-75
2022/05/09 13:42:31;;;;;;;14.07;5.75;;;;;;;;;;4983658;28;20053;-76
2022/05/09 13:44:58;;;;;;;10.68;5.10;;;;;;;;;;4982888;28;20033;-75
2022/05/09 13:47:25;;;;;;;7.30;4.90;;;;;;;;;;4999475;28;20079;-75
2022/05/09 13:49:54;;;;;;;9.00;4.93;;;;;;;;;;4983394;28;20424;-76
2022/05/09 13:52:27;;;;;;;7.40;5.05;;;;;;;;;;5000342;28;20794;-76
2022/05/09 13:54:55;;;;;;;7.60;5.00;;;;;;;;;;5000623;28;20501;-75
2022/05/09 13:57:25;;;;;;;8.70;5.32;;;;;;;;;;5001041;28;20112;-75
2022/05/09 14:00:03;;;;;;;6.07;4.95;;;;;;;;;;4999663;28;20022;-75
2022/05/09 14:02:32;;;;;;;8.25;5.20;;;;;;;;;;4982709;28;20047;-76
2022/05/09 14:05:09;;;;;;;9.93;5.00;;;;;;;;;;4981208;28;20033;-76
2022/05/09 14:07:43;;;;;;;5.70;4.70;;;;;;;;;;5000712;28;20084;-75
2022/05/09 14:10:09;;;;;;;8.93;5.35;;;;;;;;;;5000733;28;20109;-76
2022/05/09 14:12:36;;;;;;;7.78;4.28;;;;;;;;;;4982627;28;20591;-75
2022/05/09 14:15:07;;;;;;;6.03;3.85;;;;;;;;;;4999212;28;20386;-75
2022/05/09 14:17:35;;;;;;;5.32;3.85;;;;;;;;;;4999709;28;20060;-76
2022/05/09 14:20:02;;;;;;;10.68;5.43;;;;;;;;;;5000971;28;20026;-76
2022/05/09 14:22:30;;;;;;;7.90;4.45;;;;;;;;;;4995990;28;20032;-76
2022/05/09 14:30:34;;;;;;;7.13;4.45;;;;;;;;;;4980868;28;20041;-75
2022/05/09 14:33:01;;;;;;;8.23;5.15;;;;;;;;;;4994272;28;20409;-76
2022/05/09 14:35:36;;;;;;;6.45;3.95;;;;;;;;;;4992777;28;20054;-75
2022/05/09 14:38:03;;;;;;;6.07;4.45;;;;;;;;;;4998561;28;20068;-75
2022/05/09 14:40:31;;;;;;;5.75;4.43;;;;;;;;;;4991762;28;20188;-75
2022/05/09 14:43:00;;;;;;;8.38;4.22;;;;;;;;;;4988878;28;20022;-76
2022/05/09 14:45:28;;;;;;;11.77;5.63;;;;;;;;;;4984403;28;20104;-74
2022/05/09 14:47:56;;;;;;;7.63;4.65;;;;;;;;;;4988155;28;20092;-74
2022/05/09 14:50:22;;;;;;;7.65;4.85;;;;;;;;;;4979757;28;20027;-75
2022/05/09 14:52:52;;;;;;;9.00;5.20;;;;;;;;;;4979746;28;20029;-74
2022/05/09 14:58:26;;;;;;;8.07;4.70;;;;;;;;;;4990854;28;20694;-74
2022/05/09 15:01:00;;;;;;;6.05;5.20;;;;;;;;;;4952472;28;20038;-74
2022/05/09 15:03:27;;;;;;;6.85;5.38;;;;;;;;;;4995892;28;20496;-73
2022/05/09 15:05:54;;;;;;;11.13;5.70;;;;;;;;;;4998005;28;20029;-75
2022/05/09 15:08:22;;;;;;;9.65;5.55;;;;;;;;;;4980511;28;20561;-73
2022/05/09 15:10:49;;;;;;;9.70;5.93;;;;;;;;;;4996892;28;20064;-75